Time;durP1;ratioP1;P1;durP2;ratioP2;P2;SDS_P1;SDS_P2;PMS_P1;PMS_P2;Temp;Humidity;BMP_temperature;BMP_pressure;BME280_temperature;BME280_humidity;BME280_pressure;Samples;Min_cycle;Max_cycle;Signal;HPM_P1;HPM_P2
2022/06/12 00:01:24;;;;;;;21.00;3.35;;;;;;;;;;10382531;28;20030;-49
2022/06/12 00:06:25;;;;;;;22.13;3.92;;;;;;;;;;10384711;28;20049;-49
2022/06/12 00:11:27;;;;;;;16.05;3.58;;;;;;;;;;10381970;28;20028;-47
2022/06/12 00:16:33;;;;;;;21.80;3.95;;;;;;;;;;10391535;28;20034;-46
2022/06/12 00:21:35;;;;;;;21.63;3.25;;;;;;;;;;10398630;28;20029;-46
2022/06/12 00:26:43;;;;;;;13.85;3.95;;;;;;;;;;10388124;28;20033;-47
2022/06/12 00:31:56;;;;;;;12.32;2.70;;;;;;;;;;10403513;28;20509;-46
2022/06/12 00:36:58;;;;;;;13.52;2.90;;;;;;;;;;10382846;28;20366;-49
2022/06/12 00:42:00;;;;;;;11.48;2.40;;;;;;;;;;10396558;28;20033;-48
2022/06/12 00:47:10;;;;;;;10.05;2.47;;;;;;;;;;10401613;28;20053;-48
2022/06/12 00:52:41;;;;;;;14.25;2.58;;;;;;;;;;10382697;28;20504;-46
2022/06/12 00:57:42;;;;;;;11.52;3.42;;;;;;;;;;10383280;28;20067;-49
2022/06/12 01:02:43;;;;;;;11.80;2.95;;;;;;;;;;10391910;28;20032;-46
2022/06/12 01:07:50;;;;;;;12.40;2.75;;;;;;;;;;10392200;28;20087;-46
2022/06/12 01:13:16;;;;;;;13.43;3.08;;;;;;;;;;10401152;28;20120;-46
2022/06/12 01:18:24;;;;;;;10.95;3.00;;;;;;;;;;10383486;28;20030;-46
2022/06/12 01:23:43;;;;;;;11.83;2.77;;;;;;;;;;10386571;28;20021;-46
2022/06/12 01:29:25;;;;;;;10.95;2.30;;;;;;;;;;10386915;28;20038;-46
2022/06/12 01:34:55;;;;;;;15.52;2.72;;;;;;;;;;10389177;28;20481;-47
2022/06/12 01:40:30;;;;;;;10.15;2.53;;;;;;;;;;10375251;28;20061;-47
2022/06/12 01:46:01;;;;;;;7.50;2.53;;;;;;;;;;10373702;28;20049;-47
2022/06/12 01:51:55;;;;;;;12.13;2.20;;;;;;;;;;10378534;28;20034;-46
2022/06/12 01:57:20;;;;;;;5.53;2.35;;;;;;;;;;10354823;28;20088;-48
2022/06/12 02:02:37;;;;;;;4.00;1.90;;;;;;;;;;10394913;28;20042;-46
2022/06/12 02:07:51;;;;;;;5.80;2.03;;;;;;;;;;10382628;28;20064;-46
2022/06/12 02:13:27;;;;;;;7.45;2.65;;;;;;;;;;10379619;28;20052;-47
2022/06/12 02:18:39;;;;;;;4.60;2.35;;;;;;;;;;10392508;28;20104;-47
2022/06/12 02:23:48;;;;;;;10.02;2.30;;;;;;;;;;10374960;28;20026;-47
2022/06/12 02:29:01;;;;;;;5.07;2.20;;;;;;;;;;10385380;28;20064;-47
2022/06/12 02:34:13;;;;;;;3.90;1.92;;;;;;;;;;10386675;28;20113;-46
2022/06/12 02:39:32;;;;;;;6.50;2.10;;;;;;;;;;10379725;28;20037;-47
2022/06/12 02:44:49;;;;;;;4.05;1.92;;;;;;;;;;10402464;28;20404;-47
2022/06/12 02:49:52;;;;;;;10.25;2.72;;;;;;;;;;10390393;28;20029;-47
2022/06/12 02:55:07;;;;;;;6.75;1.67;;;;;;;;;;10385202;28;20618;-48
2022/06/12 03:00:19;;;;;;;4.32;2.10;;;;;;;;;;10379041;28;20488;-47
2022/06/12 03:05:35;;;;;;;3.63;1.95;;;;;;;;;;10374034;28;20058;-45
2022/06/12 03:10:51;;;;;;;6.15;2.17;;;;;;;;;;10373609;28;20486;-46
2022/06/12 03:16:01;;;;;;;3.10;2.15;;;;;;;;;;10396023;28;20044;-47
2022/06/12 03:21:33;;;;;;;3.30;1.92;;;;;;;;;;10378760;28;20067;-47
2022/06/12 03:26:49;;;;;;;3.97;1.90;;;;;;;;;;10383985;28;20065;-47
2022/06/12 03:31:58;;;;;;;5.70;1.85;;;;;;;;;;10384599;28;20489;-46
2022/06/12 03:37:35;;;;;;;2.15;1.42;;;;;;;;;;10384532;28;20033;-46
2022/06/12 03:42:46;;;;;;;3.30;1.70;;;;;;;;;;10386509;28;20041;-48
2022/06/12 03:48:12;;;;;;;4.38;2.30;;;;;;;;;;10375261;28;20029;-46
2022/06/12 03:53:21;;;;;;;6.28;1.85;;;;;;;;;;10395349;28;20029;-46
2022/06/12 03:58:29;;;;;;;3.10;1.92;;;;;;;;;;10392895;28;20060;-45
2022/06/12 04:03:37;;;;;;;8.13;1.80;;;;;;;;;;10376322;28;20033;-48
2022/06/12 04:09:00;;;;;;;5.30;1.60;;;;;;;;;;10396199;28;20032;-48
2022/06/12 04:14:04;;;;;;;7.03;1.98;;;;;;;;;;10403245;28;20479;-46
2022/06/12 04:19:18;;;;;;;2.42;1.50;;;;;;;;;;10385943;28;20486;-47
2022/06/12 04:24:42;;;;;;;4.47;1.50;;;;;;;;;;10386568;28;20045;-46
2022/06/12 04:30:15;;;;;;;3.53;1.90;;;;;;;;;;10393328;28;20428;-46
2022/06/12 04:35:17;;;;;;;3.95;2.00;;;;;;;;;;10419260;28;20092;-47
2022/06/12 04:40:28;;;;;;;5.20;1.75;;;;;;;;;;10400504;28;20040;-46
2022/06/12 04:45:28;;;;;;;2.70;1.77;;;;;;;;;;10394576;28;20136;-46
2022/06/12 04:50:29;;;;;;;2.78;1.80;;;;;;;;;;10386885;28;20034;-47
2022/06/12 04:55:33;;;;;;;2.25;1.70;;;;;;;;;;10390854;28;20034;-46
2022/06/12 05:00:34;;;;;;;2.53;1.88;;;;;;;;;;10386564;28;20478;-46
2022/06/12 05:05:35;;;;;;;6.18;1.90;;;;;;;;;;10389210;28;20025;-47
2022/06/12 05:10:36;;;;;;;5.75;1.90;;;;;;;;;;10382751;28;20052;-48
2022/06/12 05:15:37;;;;;;;7.25;1.70;;;;;;;;;;10396127;28;20054;-45
2022/06/12 05:20:39;;;;;;;15.27;2.92;;;;;;;;;;10387701;28;20029;-47
2022/06/12 05:25:42;;;;;;;5.65;1.80;;;;;;;;;;10380228;28;20026;-46
2022/06/12 05:30:43;;;;;;;5.00;1.48;;;;;;;;;;10387441;28;20088;-46
2022/06/12 05:35:44;;;;;;;6.40;1.77;;;;;;;;;;10396195;28;20033;-45
2022/06/12 05:40:44;;;;;;;3.55;1.50;;;;;;;;;;10379397;28;20037;-46
2022/06/12 05:45:45;;;;;;;4.20;1.52;;;;;;;;;;10379521;28;20390;-45
2022/06/12 05:50:57;;;;;;;6.68;1.88;;;;;;;;;;10380921;28;20044;-49
2022/06/12 05:55:59;;;;;;;26.17;2.30;;;;;;;;;;10387822;28;20044;-47
2022/06/12 06:00:59;;;;;;;15.00;1.80;;;;;;;;;;10390828;28;20683;-50
2022/06/12 06:06:01;;;;;;;18.85;2.13;;;;;;;;;;10392121;28;20033;-46
2022/06/12 06:11:02;;;;;;;14.45;1.98;;;;;;;;;;10389638;28;20052;-45
2022/06/12 06:16:03;;;;;;;10.90;2.25;;;;;;;;;;10372631;28;20057;-49
2022/06/12 06:21:04;;;;;;;4.90;2.25;;;;;;;;;;10389565;28;20029;-46
2022/06/12 06:26:05;;;;;;;6.78;2.45;;;;;;;;;;10386558;28;20030;-46
2022/06/12 06:31:07;;;;;;;6.25;3.00;;;;;;;;;;10397796;28;20053;-47
2022/06/12 06:36:10;;;;;;;8.43;3.00;;;;;;;;;;10390070;28;20121;-46
2022/06/12 06:41:12;;;;;;;5.15;2.75;;;;;;;;;;10385668;28;20116;-48
2022/06/12 06:46:15;;;;;;;5.72;3.17;;;;;;;;;;10390386;28;20474;-48
2022/06/12 06:51:16;;;;;;;5.20;2.63;;;;;;;;;;10380871;28;20029;-46
2022/06/12 06:56:20;;;;;;;4.45;2.40;;;;;;;;;;10398976;28;20025;-46
2022/06/12 07:01:21;;;;;;;3.10;2.10;;;;;;;;;;10386835;28;20034;-46
2022/06/12 07:06:22;;;;;;;5.13;2.53;;;;;;;;;;10391183;28;20036;-47
2022/06/12 07:11:24;;;;;;;6.53;3.13;;;;;;;;;;10376051;28;20176;-45
2022/06/12 07:16:28;;;;;;;3.40;2.70;;;;;;;;;;10390205;28;20044;-46
2022/06/12 07:21:29;;;;;;;7.57;2.80;;;;;;;;;;10388346;28;20037;-46
2022/06/12 07:26:37;;;;;;;4.57;2.70;;;;;;;;;;10385799;28;20029;-46
2022/06/12 07:31:38;;;;;;;6.30;2.60;;;;;;;;;;10373926;28;20050;-47
2022/06/12 07:36:41;;;;;;;8.27;2.50;;;;;;;;;;10404057;28;20029;-44
2022/06/12 07:41:43;;;;;;;4.38;2.28;;;;;;;;;;10382995;28;20030;-44
2022/06/12 07:46:44;;;;;;;9.93;2.38;;;;;;;;;;10377221;28;20521;-46
2022/06/12 07:51:45;;;;;;;3.80;2.10;;;;;;;;;;10392330;28;20025;-45
2022/06/12 07:56:47;;;;;;;13.90;2.45;;;;;;;;;;10384146;28;20443;-45
2022/06/12 08:01:47;;;;;;;4.20;1.95;;;;;;;;;;10392718;28;20436;-44
2022/06/12 08:06:48;;;;;;;7.07;2.47;;;;;;;;;;10374954;28;20056;-45
2022/06/12 08:11:51;;;;;;;6.88;2.35;;;;;;;;;;10383898;28;20036;-44
2022/06/12 08:16:52;;;;;;;3.63;2.00;;;;;;;;;;10379946;28;20022;-44
2022/06/12 08:21:53;;;;;;;7.25;2.30;;;;;;;;;;10390476;28;20457;-45
2022/06/12 08:26:54;;;;;;;3.90;1.90;;;;;;;;;;10373411;28;20375;-45
2022/06/12 08:32:01;;;;;;;3.67;2.15;;;;;;;;;;10370048;28;20050;-45
2022/06/12 08:37:07;;;;;;;6.13;2.30;;;;;;;;;;10398835;28;20599;-45
2022/06/12 08:42:14;;;;;;;5.40;2.25;;;;;;;;;;10397054;28;20022;-44
2022/06/12 08:47:18;;;;;;;4.63;2.13;;;;;;;;;;10396516;28;20481;-45
2022/06/12 08:52:56;;;;;;;3.88;2.10;;;;;;;;;;10381732;28;20049;-44
2022/06/12 08:58:25;;;;;;;3.38;1.83;;;;;;;;;;10396073;28;20602;-44
2022/06/12 09:03:32;;;;;;;4.30;2.00;;;;;;;;;;10398133;28;20030;-44
2022/06/12 09:08:54;;;;;;;3.85;2.15;;;;;;;;;;10378464;28;20037;-44
2022/06/12 09:14:19;;;;;;;3.45;2.05;;;;;;;;;;10385612;28;20111;-44
2022/06/12 09:19:49;;;;;;;7.00;2.60;;;;;;;;;;10394933;28;20021;-44
2022/06/12 09:24:53;;;;;;;4.82;2.58;;;;;;;;;;10407474;28;20091;-45
2022/06/12 09:30:09;;;;;;;2.95;2.03;;;;;;;;;;10384004;28;20053;-45
2022/06/12 09:35:52;;;;;;;5.55;2.17;;;;;;;;;;10367952;28;20032;-47
2022/06/12 09:41:09;;;;;;;4.15;2.20;;;;;;;;;;10375796;28;20030;-46
2022/06/12 09:46:47;;;;;;;3.75;2.03;;;;;;;;;;10386870;28;20600;-46
2022/06/12 09:52:33;;;;;;;7.13;2.13;;;;;;;;;;10396101;28;20501;-45
2022/06/12 09:58:00;;;;;;;5.72;2.13;;;;;;;;;;10399319;28;20063;-45
2022/06/12 10:03:19;;;;;;;4.47;1.80;;;;;;;;;;10382772;28;20536;-44
2022/06/12 10:08:40;;;;;;;5.50;2.55;;;;;;;;;;10376720;28;20480;-44
2022/06/12 10:14:03;;;;;;;4.30;2.10;;;;;;;;;;10407851;28;20033;-45
2022/06/12 10:19:20;;;;;;;4.18;2.10;;;;;;;;;;10395045;28;20394;-45
2022/06/12 10:24:21;;;;;;;6.28;2.20;;;;;;;;;;10386646;28;20121;-44
2022/06/12 10:29:24;;;;;;;3.67;1.88;;;;;;;;;;10385381;28;20401;-45
2022/06/12 10:34:32;;;;;;;3.15;2.00;;;;;;;;;;10389796;28;20126;-46
2022/06/12 10:39:34;;;;;;;5.03;2.20;;;;;;;;;;10393634;28;20084;-45
2022/06/12 10:44:35;;;;;;;2.95;2.00;;;;;;;;;;10398752;28;20056;-45
2022/06/12 10:49:46;;;;;;;2.78;2.00;;;;;;;;;;10407950;28;20066;-47
2022/06/12 10:54:50;;;;;;;3.38;1.92;;;;;;;;;;10395274;28;20093;-44
2022/06/12 11:00:24;;;;;;;2.88;1.75;;;;;;;;;;10393000;28;20033;-44
2022/06/12 11:06:07;;;;;;;2.58;1.98;;;;;;;;;;10387916;28;20583;-45
2022/06/12 11:11:20;;;;;;;4.65;1.88;;;;;;;;;;10400428;28;20033;-46
2022/06/12 11:16:48;;;;;;;5.75;2.08;;;;;;;;;;10388187;28;20040;-44
2022/06/12 11:22:12;;;;;;;2.92;1.90;;;;;;;;;;10389270;28;20122;-44
2022/06/12 11:27:37;;;;;;;4.28;2.05;;;;;;;;;;10392617;28;20478;-45
2022/06/12 11:33:41;;;;;;;2.92;1.92;;;;;;;;;;10407157;28;20412;-45
2022/06/12 11:39:21;;;;;;;3.38;1.65;;;;;;;;;;10382793;28;20042;-44
2022/06/12 11:44:53;;;;;;;2.42;1.92;;;;;;;;;;10395454;28;20109;-45
2022/06/12 11:50:44;;;;;;;1.85;1.63;;;;;;;;;;10391520;28;20029;-45
2022/06/12 11:56:18;;;;;;;3.58;2.10;;;;;;;;;;10398905;28;20057;-45
2022/06/12 12:02:07;;;;;;;1.95;1.55;;;;;;;;;;10384803;28;20476;-44
2022/06/12 12:07:35;;;;;;;3.90;1.83;;;;;;;;;;10394136;28;20042;-44
2022/06/12 12:12:43;;;;;;;3.58;2.10;;;;;;;;;;10377608;28;20389;-44
2022/06/12 12:17:46;;;;;;;;;;;;;;;;;;10377553;28;20049;-44
2022/06/12 12:22:58;;;;;;;3.15;2.03;;;;;;;;;;10380478;28;20310;-45
2022/06/12 12:28:11;;;;;;;2.63;1.88;;;;;;;;;;10381342;28;20056;-44
2022/06/12 12:33:16;;;;;;;4.38;1.98;;;;;;;;;;10392299;28;20064;-44
2022/06/12 12:43:59;;;;;;;4.60;1.88;;;;;;;;;;10401222;28;20030;-44
2022/06/12 12:49:00;;;;;;;2.20;2.00;;;;;;;;;;10382279;28;20055;-45
2022/06/12 12:54:20;;;;;;;2.00;1.75;;;;;;;;;;10384955;28;20158;-45
2022/06/12 12:59:20;;;;;;;3.58;1.80;;;;;;;;;;10379400;28;20033;-44
2022/06/12 13:04:34;;;;;;;4.22;2.00;;;;;;;;;;10384111;28;20045;-44
2022/06/12 13:10:26;;;;;;;1.98;1.73;;;;;;;;;;10398690;28;20079;-44
2022/06/12 13:15:59;;;;;;;3.15;1.98;;;;;;;;;;10398798;28;20115;-44
2022/06/12 13:21:37;;;;;;;3.83;1.85;;;;;;;;;;10403995;28;20053;-45
2022/06/12 13:26:41;;;;;;;2.42;2.00;;;;;;;;;;10400525;28;20112;-44
2022/06/12 13:31:56;;;;;;;4.15;2.17;;;;;;;;;;10400783;28;20129;-45
2022/06/12 13:36:59;;;;;;;2.38;1.90;;;;;;;;;;10405293;28;20030;-44
2022/06/12 13:42:04;;;;;;;2.97;2.03;;;;;;;;;;10403223;28;20041;-45
2022/06/12 13:47:33;;;;;;;3.30;1.90;;;;;;;;;;10390323;28;20618;-44
2022/06/12 13:53:05;;;;;;;2.28;2.05;;;;;;;;;;10386004;28;20069;-44
2022/06/12 13:58:17;;;;;;;1.80;1.70;;;;;;;;;;10378397;28;20037;-45
2022/06/12 14:03:29;;;;;;;2.50;2.10;;;;;;;;;;10391506;28;20018;-45
2022/06/12 14:08:33;;;;;;;4.70;1.88;;;;;;;;;;10386056;28;20026;-45
2022/06/12 14:13:41;;;;;;;3.15;2.08;;;;;;;;;;10376197;28;20045;-44
2022/06/12 14:18:59;;;;;;;1.88;1.67;;;;;;;;;;10386111;28;20033;-45
2022/06/12 14:24:25;;;;;;;2.38;2.10;;;;;;;;;;10385658;28;20120;-44
2022/06/12 14:29:38;;;;;;;1.83;1.73;;;;;;;;;;10372081;28;20042;-45
2022/06/12 14:34:59;;;;;;;4.30;1.80;;;;;;;;;;10393343;28;20050;-44
2022/06/12 14:40:15;;;;;;;3.63;1.88;;;;;;;;;;10395903;28;20468;-45
2022/06/12 14:45:15;;;;;;;3.17;1.80;;;;;;;;;;10392366;28;20117;-45
2022/06/12 14:50:17;;;;;;;2.70;1.83;;;;;;;;;;10403619;28;20711;-46
2022/06/12 14:55:17;;;;;;;3.75;1.80;;;;;;;;;;10378853;28;20029;-45
2022/06/12 15:00:24;;;;;;;1.98;1.80;;;;;;;;;;10372779;28;20516;-45
2022/06/12 15:05:29;;;;;;;1.95;1.52;;;;;;;;;;10369423;28;20165;-44
2022/06/12 15:10:30;;;;;;;4.97;1.73;;;;;;;;;;10391710;28;20034;-45
2022/06/12 15:15:31;;;;;;;3.88;2.00;;;;;;;;;;10370700;28;20021;-45
2022/06/12 15:20:31;;;;;;;2.13;1.80;;;;;;;;;;10371311;28;20053;-44
2022/06/12 15:31:01;;;;;;;3.28;1.80;;;;;;;;;;10378608;28;20038;-45
2022/06/12 15:36:03;;;;;;;1.75;1.65;;;;;;;;;;10374397;28;20049;-46
2022/06/12 15:41:04;;;;;;;2.25;1.83;;;;;;;;;;10386991;28;20038;-45
2022/06/12 15:46:06;;;;;;;5.55;1.80;;;;;;;;;;10374008;28;20037;-45
2022/06/12 15:51:15;;;;;;;2.17;1.70;;;;;;;;;;10373965;28;20026;-45
2022/06/12 15:56:20;;;;;;;2.38;1.85;;;;;;;;;;10390367;28;20500;-45
2022/06/12 16:01:27;;;;;;;2.10;1.90;;;;;;;;;;10387474;28;20029;-45
2022/06/12 16:06:27;;;;;;;4.55;1.95;;;;;;;;;;10392417;28;20108;-45
2022/06/12 16:11:28;;;;;;;2.30;1.73;;;;;;;;;;10382523;28;20409;-44
2022/06/12 16:16:29;;;;;;;2.28;1.52;;;;;;;;;;10387048;28;20381;-44
2022/06/12 16:21:29;;;;;;;2.25;1.85;;;;;;;;;;10404981;28;20092;-45
2022/06/12 16:26:30;;;;;;;1.80;1.70;;;;;;;;;;10371943;28;20112;-44
2022/06/12 16:31:31;;;;;;;4.13;1.77;;;;;;;;;;10378396;28;20053;-46
2022/06/12 16:36:32;;;;;;;2.25;1.75;;;;;;;;;;10387214;28;20022;-45
2022/06/12 16:41:53;;;;;;;2.63;1.70;;;;;;;;;;10391343;28;20034;-44
2022/06/12 16:46:57;;;;;;;2.22;1.73;;;;;;;;;;10383577;28;20037;-47
2022/06/12 16:52:14;;;;;;;6.03;1.92;;;;;;;;;;10385074;28;20043;-48
2022/06/12 16:57:21;;;;;;;3.03;1.67;;;;;;;;;;10390300;28;20401;-47
2022/06/12 17:02:26;;;;;;;6.03;1.90;;;;;;;;;;10395729;28;20065;-48
2022/06/12 17:07:33;;;;;;;5.15;1.95;;;;;;;;;;10373841;28;20029;-48
2022/06/12 17:12:37;;;;;;;5.07;2.00;;;;;;;;;;10397967;28;20030;-47
2022/06/12 17:17:38;;;;;;;2.63;1.90;;;;;;;;;;10398962;28;20040;-47
2022/06/12 17:22:39;;;;;;;5.07;1.88;;;;;;;;;;10395233;28;20042;-47
2022/06/12 17:27:40;;;;;;;3.50;1.95;;;;;;;;;;10387112;28;20627;-47
2022/06/12 17:32:41;;;;;;;6.47;2.20;;;;;;;;;;10399398;28;20114;-47
2022/06/12 17:37:42;;;;;;;5.70;1.90;;;;;;;;;;10381353;28;20125;-48
2022/06/12 17:42:43;;;;;;;6.00;2.08;;;;;;;;;;10370449;28;20381;-47
2022/06/12 17:47:44;;;;;;;2.05;1.75;;;;;;;;;;10396248;28;20040;-48
2022/06/12 17:52:44;;;;;;;4.60;2.22;;;;;;;;;;10398438;28;20095;-47
2022/06/12 17:57:46;;;;;;;14.85;2.85;;;;;;;;;;10385244;28;20513;-47
2022/06/12 18:02:46;;;;;;;7.00;2.03;;;;;;;;;;10383504;28;20080;-47
2022/06/12 18:07:47;;;;;;;4.53;2.15;;;;;;;;;;10382070;28;20387;-48
2022/06/12 18:12:49;;;;;;;4.35;2.05;;;;;;;;;;10396687;28;20396;-47
2022/06/12 18:23:09;;;;;;;5.10;2.00;;;;;;;;;;10393006;28;20507;-47
2022/06/12 18:28:10;;;;;;;4.57;2.30;;;;;;;;;;10391750;28;20104;-47
2022/06/12 18:33:11;;;;;;;5.07;2.40;;;;;;;;;;10390927;28;20522;-47
2022/06/12 18:38:13;;;;;;;5.28;2.05;;;;;;;;;;10407281;28;20053;-48
2022/06/12 18:43:14;;;;;;;4.53;2.17;;;;;;;;;;10385656;28;20076;-47
2022/06/12 18:48:16;;;;;;;19.77;2.40;;;;;;;;;;10375008;28;20056;-48
2022/06/12 18:53:16;;;;;;;6.43;1.50;;;;;;;;;;10388380;28;20034;-47
2022/06/12 18:58:17;;;;;;;4.43;2.25;;;;;;;;;;10393066;28;20102;-48
2022/06/12 19:03:18;;;;;;;3.25;1.88;;;;;;;;;;10400464;28;20080;-47
2022/06/12 19:08:19;;;;;;;5.75;2.53;;;;;;;;;;10402508;28;20037;-48
2022/06/12 19:13:20;;;;;;;4.13;1.98;;;;;;;;;;10407662;28;20409;-47
2022/06/12 19:18:21;;;;;;;8.32;2.00;;;;;;;;;;10398592;28;20029;-47
2022/06/12 19:23:21;;;;;;;7.70;2.33;;;;;;;;;;10399258;28;20082;-48
2022/06/12 19:28:22;;;;;;;3.83;1.95;;;;;;;;;;10399594;28;20021;-47
2022/06/12 19:33:22;;;;;;;5.55;1.83;;;;;;;;;;10389388;28;20048;-48
2022/06/12 19:38:23;;;;;;;6.88;2.00;;;;;;;;;;10391130;28;20033;-49
2022/06/12 19:43:24;;;;;;;4.57;2.10;;;;;;;;;;10381675;28;20034;-49
2022/06/12 19:48:24;;;;;;;4.93;2.22;;;;;;;;;;10376249;28;20033;-49
2022/06/12 19:53:25;;;;;;;6.75;1.80;;;;;;;;;;10375595;28;20389;-48
2022/06/12 19:58:25;;;;;;;5.15;2.20;;;;;;;;;;10398525;28;20037;-49
2022/06/12 20:03:27;;;;;;;2.38;1.70;;;;;;;;;;10399172;28;20497;-53
2022/06/12 20:08:27;;;;;;;6.88;2.05;;;;;;;;;;10407442;28;20034;-54
2022/06/12 20:13:28;;;;;;;7.63;2.10;;;;;;;;;;10393579;28;20033;-54
2022/06/12 20:18:29;;;;;;;3.70;1.88;;;;;;;;;;10390867;28;20720;-53
2022/06/12 20:23:32;;;;;;;3.70;1.70;;;;;;;;;;10392378;28;20044;-53
2022/06/12 20:28:32;;;;;;;5.18;1.90;;;;;;;;;;10390984;28;20806;-56
2022/06/12 20:33:38;;;;;;;2.30;1.60;;;;;;;;;;10402388;28;20038;-50
2022/06/12 20:38:38;;;;;;;4.45;1.70;;;;;;;;;;10406218;28;20026;-50
2022/06/12 20:43:39;;;;;;;4.10;2.05;;;;;;;;;;10405079;28;20030;-53
2022/06/12 20:48:40;;;;;;;7.75;1.77;;;;;;;;;;10393941;28;20028;-53
2022/06/12 20:53:41;;;;;;;4.25;1.52;;;;;;;;;;10405610;28;20037;-52
2022/06/12 20:58:42;;;;;;;6.25;2.15;;;;;;;;;;10396427;28;20024;-50
2022/06/12 21:03:42;;;;;;;8.18;2.30;;;;;;;;;;10395816;28;20034;-52
2022/06/12 21:08:43;;;;;;;8.20;2.10;;;;;;;;;;10385513;28;20381;-53
2022/06/12 21:13:44;;;;;;;5.90;2.40;;;;;;;;;;10383855;28;20033;-51
2022/06/12 21:18:45;;;;;;;9.68;2.15;;;;;;;;;;10378323;28;20029;-51
2022/06/12 21:23:47;;;;;;;6.38;2.67;;;;;;;;;;10394886;28;20159;-50
2022/06/12 21:28:48;;;;;;;3.38;1.90;;;;;;;;;;10382766;28;20037;-50
2022/06/12 21:33:49;;;;;;;3.63;2.00;;;;;;;;;;10382672;28;20041;-50
2022/06/12 21:38:49;;;;;;;5.15;1.85;;;;;;;;;;10378844;28;20029;-50
2022/06/12 21:43:50;;;;;;;4.47;2.20;;;;;;;;;;10381715;28;20038;-52
2022/06/12 21:48:51;;;;;;;6.03;2.00;;;;;;;;;;10381420;28;20018;-50
2022/06/12 21:59:11;;;;;;;4.90;2.25;;;;;;;;;;10383330;28;20478;-46
2022/06/12 22:04:11;;;;;;;10.40;2.35;;;;;;;;;;10383905;28;20030;-47
2022/06/12 22:09:12;;;;;;;7.47;2.42;;;;;;;;;;10400154;28;20021;-48
2022/06/12 22:14:14;;;;;;;5.88;2.30;;;;;;;;;;10376958;28;20041;-49
2022/06/12 22:19:14;;;;;;;9.70;2.60;;;;;;;;;;10371913;28;20064;-51
2022/06/12 22:24:15;;;;;;;5.32;2.40;;;;;;;;;;10392890;28;20056;-48
2022/06/12 22:29:16;;;;;;;4.63;2.03;;;;;;;;;;10381066;28;20046;-52
2022/06/12 22:34:16;;;;;;;3.67;1.98;;;;;;;;;;10399230;28;20048;-48
2022/06/12 22:39:17;;;;;;;4.80;2.08;;;;;;;;;;10401183;28;20045;-52
2022/06/12 22:44:18;;;;;;;6.32;2.38;;;;;;;;;;10379512;28;20545;-47
2022/06/12 22:49:18;;;;;;;3.97;2.00;;;;;;;;;;10399739;28;20394;-48
2022/06/12 22:54:19;;;;;;;6.85;2.00;;;;;;;;;;10370133;28;20131;-48
2022/06/12 22:59:20;;;;;;;3.08;2.10;;;;;;;;;;10384465;28;20112;-47
2022/06/12 23:04:21;;;;;;;4.13;2.05;;;;;;;;;;10388804;28;20116;-50
2022/06/12 23:09:22;;;;;;;4.75;1.98;;;;;;;;;;10394101;28;20507;-48
2022/06/12 23:14:22;;;;;;;5.60;1.85;;;;;;;;;;10375007;28;20116;-46
2022/06/12 23:19:24;;;;;;;3.63;2.20;;;;;;;;;;10392832;28;20072;-54
2022/06/12 23:24:24;;;;;;;4.00;2.05;;;;;;;;;;10378010;28;20505;-47
2022/06/12 23:29:25;;;;;;;2.97;1.90;;;;;;;;;;10365417;28;20069;-46
2022/06/12 23:34:25;;;;;;;3.92;1.92;;;;;;;;;;10382326;28;20037;-47
2022/06/12 23:39:26;;;;;;;7.88;2.10;;;;;;;;;;10373179;28;20565;-46
2022/06/12 23:44:26;;;;;;;4.65;2.00;;;;;;;;;;10398715;28;20087;-49
2022/06/12 23:49:27;;;;;;;2.92;1.88;;;;;;;;;;10378770;28;20033;-47
2022/06/12 23:54:28;;;;;;;2.35;1.90;;;;;;;;;;10384706;28;20041;-47
2022/06/12 23:59:28;;;;;;;5.90;2.40;;;;;;;;;;10399198;28;20480;-47
